KMRY/MRY METAR and TAF weather

Enter ICAO airport designator
Station Type Date Time Source
KMRY METAR 2021/09/24 04:54 UTC NOAA

KMRY 240454Z AUTO 00000KT 6SM BR OVC004 15/13 A2991 RMK AO2 SLP141 T01500133


Station Type Date Time Source
KMRY Decoded METAR 2021/09/24 04:54 UTC NOAA

MONTEREY PENINSULA AIRPORT, CA, United States (KMRY) 36-35N 121-51W 66M
Sep 24, 2021 - 12:54 AM EDT / 2021.09.24 0454 UTC
Wind: Calm:0
Visibility: 6 mile(s):0
Sky conditions: overcast
Weather: mist
Temperature: 59.0 F (15.0 C)
Dew Point: 55.9 F (13.3 C)
Relative Humidity: 89%
Pressure (altimeter): 29.91 in. Hg (1012 hPa)
ob: KMRY 240454Z AUTO 00000KT 6SM BR OVC004 15/13 A2991 RMK AO2 SLP141 T01500133
cycle: 5

Station Type Date Time Source
KMRY TAF 2021/09/24 06:27 UTC NOAA

TAF KMRY 240524Z 2406/2506 33004KT 6SM BR OVC005
FM240900 VRB03KT 4SM BR OVC003
TEMPO 2409/2413 1SM BR
FM241800 33008KT P6SM SKC
FM250300 28004KT 6SM BR BKN007

Example: see airport list